sensor_id;sensor_type;location;lat;lon;timestamp;temperature;humidity
15450;DHT22;7826;49.784;9.934;2024-03-02T00:00:29;6.80;99.90
15450;DHT22;7826;49.784;9.934;2024-03-02T00:02:55;6.80;99.90
15450;DHT22;7826;49.784;9.934;2024-03-02T00:05:22;6.80;99.90
15450;DHT22;7826;49.784;9.934;2024-03-02T00:07:56;6.80;99.90
15450;DHT22;7826;49.784;9.934;2024-03-02T00:10:38;6.80;99.90
15450;DHT22;7826;49.784;9.934;2024-03-02T00:13:08;6.80;99.90
15450;DHT22;7826;49.784;9.934;2024-03-02T00:15:47;6.80;99.90
15450;DHT22;7826;49.784;9.934;2024-03-02T00:18:19;6.80;99.90
15450;DHT22;7826;49.784;9.934;2024-03-02T00:20:45;6.80;99.90
15450;DHT22;7826;49.784;9.934;2024-03-02T00:23:15;6.90;99.90
15450;DHT22;7826;49.784;9.934;2024-03-02T00:25:44;6.80;99.90
15450;DHT22;7826;49.784;9.934;2024-03-02T00:30:59;6.90;99.90
15450;DHT22;7826;49.784;9.934;2024-03-02T00:33:52;6.90;99.90
15450;DHT22;7826;49.784;9.934;2024-03-02T00:36:23;7.00;99.90
15450;DHT22;7826;49.784;9.934;2024-03-02T00:38:52;7.00;99.90
15450;DHT22;7826;49.784;9.934;2024-03-02T00:43:58;7.00;99.90
15450;DHT22;7826;49.784;9.934;2024-03-02T00:46:28;7.00;99.90
15450;DHT22;7826;49.784;9.934;2024-03-02T00:48:58;7.00;99.90
15450;DHT22;7826;49.784;9.934;2024-03-02T00:51:29;7.00;99.90
15450;DHT22;7826;49.784;9.934;2024-03-02T00:53:58;7.00;99.90
15450;DHT22;7826;49.784;9.934;2024-03-02T00:56:25;7.00;99.90
15450;DHT22;7826;49.784;9.934;2024-03-02T00:58:52;7.00;99.90
15450;DHT22;7826;49.784;9.934;2024-03-02T01:01:19;7.00;99.90
15450;DHT22;7826;49.784;9.934;2024-03-02T01:03:46;6.90;99.90
15450;DHT22;7826;49.784;9.934;2024-03-02T01:06:12;7.00;99.90
15450;DHT22;7826;49.784;9.934;2024-03-02T01:08:38;7.00;99.90
15450;DHT22;7826;49.784;9.934;2024-03-02T01:11:04;7.00;99.90
15450;DHT22;7826;49.784;9.934;2024-03-02T01:13:31;7.00;99.90
15450;DHT22;7826;49.784;9.934;2024-03-02T01:15:57;7.00;99.90
15450;DHT22;7826;49.784;9.934;2024-03-02T01:18:24;7.00;99.90
15450;DHT22;7826;49.784;9.934;2024-03-02T01:20:51;6.90;99.90
15450;DHT22;7826;49.784;9.934;2024-03-02T01:23:25;6.90;99.90
15450;DHT22;7826;49.784;9.934;2024-03-02T01:25:52;6.90;99.90
15450;DHT22;7826;49.784;9.934;2024-03-02T01:28:18;7.00;99.90
15450;DHT22;7826;49.784;9.934;2024-03-02T01:30:46;6.90;99.90
15450;DHT22;7826;49.784;9.934;2024-03-02T01:33:13;6.90;99.90
15450;DHT22;7826;49.784;9.934;2024-03-02T01:35:39;6.90;99.90
15450;DHT22;7826;49.784;9.934;2024-03-02T01:38:05;6.90;99.90
15450;DHT22;7826;49.784;9.934;2024-03-02T01:40:35;6.90;99.90
15450;DHT22;7826;49.784;9.934;2024-03-02T01:43:02;7.00;99.90
15450;DHT22;7826;49.784;9.934;2024-03-02T01:45:29;6.90;99.90
15450;DHT22;7826;49.784;9.934;2024-03-02T01:47:55;6.90;99.90
15450;DHT22;7826;49.784;9.934;2024-03-02T01:50:29;6.90;99.90
15450;DHT22;7826;49.784;9.934;2024-03-02T01:52:56;6.90;99.90
15450;DHT22;7826;49.784;9.934;2024-03-02T01:55:23;6.90;99.90
15450;DHT22;7826;49.784;9.934;2024-03-02T01:57:50;7.00;99.90
15450;DHT22;7826;49.784;9.934;2024-03-02T02:00:20;7.00;99.90
15450;DHT22;7826;49.784;9.934;2024-03-02T02:02:49;7.00;99.90
15450;DHT22;7826;49.784;9.934;2024-03-02T02:05:16;7.00;99.90
15450;DHT22;7826;49.784;9.934;2024-03-02T02:07:42;7.00;99.90
15450;DHT22;7826;49.784;9.934;2024-03-02T02:10:10;6.90;99.90
15450;DHT22;7826;49.784;9.934;2024-03-02T02:12:36;6.90;99.90
15450;DHT22;7826;49.784;9.934;2024-03-02T02:15:04;6.90;99.90
15450;DHT22;7826;49.784;9.934;2024-03-02T02:17:31;6.90;99.90
15450;DHT22;7826;49.784;9.934;2024-03-02T02:19:57;6.90;99.90
15450;DHT22;7826;49.784;9.934;2024-03-02T02:22:23;6.90;99.90
15450;DHT22;7826;49.784;9.934;2024-03-02T02:24:50;6.90;99.90
15450;DHT22;7826;49.784;9.934;2024-03-02T02:27:16;6.90;99.90
15450;DHT22;7826;49.784;9.934;2024-03-02T02:29:42;6.90;99.90
15450;DHT22;7826;49.784;9.934;2024-03-02T02:32:08;6.90;99.90
15450;DHT22;7826;49.784;9.934;2024-03-02T02:34:34;6.90;99.90
15450;DHT22;7826;49.784;9.934;2024-03-02T02:37:00;7.00;99.90
15450;DHT22;7826;49.784;9.934;2024-03-02T02:39:27;7.00;99.90
15450;DHT22;7826;49.784;9.934;2024-03-02T02:41:53;6.90;99.90
15450;DHT22;7826;49.784;9.934;2024-03-02T02:44:19;6.90;99.90
15450;DHT22;7826;49.784;9.934;2024-03-02T02:46:45;6.90;99.90
15450;DHT22;7826;49.784;9.934;2024-03-02T02:49:11;6.90;99.90
15450;DHT22;7826;49.784;9.934;2024-03-02T02:51:37;6.90;99.90
15450;DHT22;7826;49.784;9.934;2024-03-02T02:54:04;6.90;99.90
15450;DHT22;7826;49.784;9.934;2024-03-02T02:56:30;6.80;99.90
15450;DHT22;7826;49.784;9.934;2024-03-02T02:58:56;6.80;99.90
15450;DHT22;7826;49.784;9.934;2024-03-02T03:01:22;6.80;99.90
15450;DHT22;7826;49.784;9.934;2024-03-02T03:03:48;6.80;99.90
15450;DHT22;7826;49.784;9.934;2024-03-02T03:06:14;6.80;99.90
15450;DHT22;7826;49.784;9.934;2024-03-02T03:08:41;6.80;99.90
15450;DHT22;7826;49.784;9.934;2024-03-02T03:11:07;6.80;99.90
15450;DHT22;7826;49.784;9.934;2024-03-02T03:13:34;6.80;99.90
15450;DHT22;7826;49.784;9.934;2024-03-02T03:16:00;6.80;99.90
15450;DHT22;7826;49.784;9.934;2024-03-02T03:18:26;6.80;99.90
15450;DHT22;7826;49.784;9.934;2024-03-02T03:20:52;6.80;99.90
15450;DHT22;7826;49.784;9.934;2024-03-02T03:23:19;6.80;99.90
15450;DHT22;7826;49.784;9.934;2024-03-02T03:25:45;6.80;99.90
15450;DHT22;7826;49.784;9.934;2024-03-02T03:28:11;6.80;99.90
15450;DHT22;7826;49.784;9.934;2024-03-02T03:30:38;6.70;99.90
15450;DHT22;7826;49.784;9.934;2024-03-02T03:33:05;6.80;99.90
15450;DHT22;7826;49.784;9.934;2024-03-02T03:35:34;6.80;99.90
15450;DHT22;7826;49.784;9.934;2024-03-02T03:38:01;6.80;99.90
15450;DHT22;7826;49.784;9.934;2024-03-02T03:40:27;6.80;99.90
15450;DHT22;7826;49.784;9.934;2024-03-02T03:42:53;6.90;99.90
15450;DHT22;7826;49.784;9.934;2024-03-02T03:45:19;6.90;99.90
15450;DHT22;7826;49.784;9.934;2024-03-02T03:47:46;6.80;99.90
15450;DHT22;7826;49.784;9.934;2024-03-02T03:50:13;6.70;99.90
15450;DHT22;7826;49.784;9.934;2024-03-02T03:52:39;6.80;99.90
15450;DHT22;7826;49.784;9.934;2024-03-02T03:55:05;6.80;99.90
15450;DHT22;7826;49.784;9.934;2024-03-02T03:57:32;6.80;99.90
15450;DHT22;7826;49.784;9.934;2024-03-02T03:59:58;6.80;99.90
15450;DHT22;7826;49.784;9.934;2024-03-02T04:02:24;6.70;99.90
15450;DHT22;7826;49.784;9.934;2024-03-02T04:04:50;6.80;99.90
15450;DHT22;7826;49.784;9.934;2024-03-02T04:07:16;6.80;99.90
15450;DHT22;7826;49.784;9.934;2024-03-02T04:09:43;6.80;99.90
15450;DHT22;7826;49.784;9.934;2024-03-02T04:12:09;6.80;99.90
15450;DHT22;7826;49.784;9.934;2024-03-02T04:14:35;6.80;99.90
15450;DHT22;7826;49.784;9.934;2024-03-02T04:17:01;6.80;99.90
15450;DHT22;7826;49.784;9.934;2024-03-02T04:19:27;6.80;99.90
15450;DHT22;7826;49.784;9.934;2024-03-02T04:21:54;6.80;99.90
15450;DHT22;7826;49.784;9.934;2024-03-02T04:24:20;6.80;99.90
15450;DHT22;7826;49.784;9.934;2024-03-02T04:26:46;6.90;99.90
15450;DHT22;7826;49.784;9.934;2024-03-02T04:29:12;6.90;99.90
15450;DHT22;7826;49.784;9.934;2024-03-02T04:31:38;6.90;99.90
15450;DHT22;7826;49.784;9.934;2024-03-02T04:34:04;6.90;99.90
15450;DHT22;7826;49.784;9.934;2024-03-02T04:36:30;6.90;99.90
15450;DHT22;7826;49.784;9.934;2024-03-02T04:38:56;6.90;99.90
15450;DHT22;7826;49.784;9.934;2024-03-02T04:41:22;6.80;99.90
15450;DHT22;7826;49.784;9.934;2024-03-02T04:43:48;6.80;99.90
15450;DHT22;7826;49.784;9.934;2024-03-02T04:46:14;6.80;99.90
15450;DHT22;7826;49.784;9.934;2024-03-02T04:48:41;6.80;99.90
15450;DHT22;7826;49.784;9.934;2024-03-02T04:51:07;6.90;99.90
15450;DHT22;7826;49.784;9.934;2024-03-02T04:53:33;6.80;99.90
15450;DHT22;7826;49.784;9.934;2024-03-02T04:55:59;6.90;99.90
15450;DHT22;7826;49.784;9.934;2024-03-02T04:58:44;6.90;99.90
15450;DHT22;7826;49.784;9.934;2024-03-02T05:01:10;6.90;99.90
15450;DHT22;7826;49.784;9.934;2024-03-02T05:03:36;6.80;99.90
15450;DHT22;7826;49.784;9.934;2024-03-02T05:06:03;6.80;99.90
15450;DHT22;7826;49.784;9.934;2024-03-02T05:08:29;6.80;99.90
15450;DHT22;7826;49.784;9.934;2024-03-02T05:10:55;6.70;99.90
15450;DHT22;7826;49.784;9.934;2024-03-02T05:13:41;6.80;99.90
15450;DHT22;7826;49.784;9.934;2024-03-02T05:16:07;6.80;99.90
15450;DHT22;7826;49.784;9.934;2024-03-02T05:18:33;6.80;99.90
15450;DHT22;7826;49.784;9.934;2024-03-02T05:21:00;6.80;99.90
15450;DHT22;7826;49.784;9.934;2024-03-02T05:23:26;6.90;99.90
15450;DHT22;7826;49.784;9.934;2024-03-02T05:25:52;6.90;99.90
15450;DHT22;7826;49.784;9.934;2024-03-02T05:28:18;7.00;99.90
15450;DHT22;7826;49.784;9.934;2024-03-02T05:30:44;7.00;99.90
15450;DHT22;7826;49.784;9.934;2024-03-02T05:33:10;6.90;99.90
15450;DHT22;7826;49.784;9.934;2024-03-02T05:35:37;7.00;99.90
15450;DHT22;7826;49.784;9.934;2024-03-02T05:38:03;6.90;99.90
15450;DHT22;7826;49.784;9.934;2024-03-02T05:40:29;7.00;99.90
15450;DHT22;7826;49.784;9.934;2024-03-02T05:42:55;7.00;99.90
15450;DHT22;7826;49.784;9.934;2024-03-02T05:45:21;7.00;99.90
15450;DHT22;7826;49.784;9.934;2024-03-02T05:47:47;7.00;99.90
15450;DHT22;7826;49.784;9.934;2024-03-02T05:50:13;7.00;99.90
15450;DHT22;7826;49.784;9.934;2024-03-02T05:52:39;7.00;99.90
15450;DHT22;7826;49.784;9.934;2024-03-02T05:55:06;6.90;99.90
15450;DHT22;7826;49.784;9.934;2024-03-02T05:57:32;6.90;99.90
15450;DHT22;7826;49.784;9.934;2024-03-02T06:00:10;6.90;99.90
15450;DHT22;7826;49.784;9.934;2024-03-02T06:02:40;6.90;99.90
15450;DHT22;7826;49.784;9.934;2024-03-02T06:05:09;6.80;99.90
15450;DHT22;7826;49.784;9.934;2024-03-02T06:07:35;6.80;99.90
15450;DHT22;7826;49.784;9.934;2024-03-02T06:10:01;6.80;99.90
15450;DHT22;7826;49.784;9.934;2024-03-02T06:12:27;6.80;99.90
15450;DHT22;7826;49.784;9.934;2024-03-02T06:14:54;6.80;99.90
15450;DHT22;7826;49.784;9.934;2024-03-02T06:17:20;6.90;99.90
15450;DHT22;7826;49.784;9.934;2024-03-02T06:19:46;6.90;99.90
15450;DHT22;7826;49.784;9.934;2024-03-02T06:22:12;6.90;99.90
15450;DHT22;7826;49.784;9.934;2024-03-02T06:24:38;6.90;99.90
15450;DHT22;7826;49.784;9.934;2024-03-02T06:27:05;6.90;99.90
15450;DHT22;7826;49.784;9.934;2024-03-02T06:29:34;6.90;99.90
15450;DHT22;7826;49.784;9.934;2024-03-02T06:32:00;6.90;99.90
15450;DHT22;7826;49.784;9.934;2024-03-02T06:34:26;7.00;99.90
15450;DHT22;7826;49.784;9.934;2024-03-02T06:36:52;7.00;99.90
15450;DHT22;7826;49.784;9.934;2024-03-02T06:39:19;7.00;99.90
15450;DHT22;7826;49.784;9.934;2024-03-02T06:41:45;7.00;99.90
15450;DHT22;7826;49.784;9.934;2024-03-02T06:44:13;7.00;99.90
15450;DHT22;7826;49.784;9.934;2024-03-02T06:46:39;7.00;99.90
15450;DHT22;7826;49.784;9.934;2024-03-02T06:49:05;7.00;99.90
15450;DHT22;7826;49.784;9.934;2024-03-02T06:51:33;7.10;99.90
15450;DHT22;7826;49.784;9.934;2024-03-02T06:54:00;7.10;99.90
15450;DHT22;7826;49.784;9.934;2024-03-02T06:56:26;7.10;99.90
15450;DHT22;7826;49.784;9.934;2024-03-02T06:58:52;7.20;99.90
15450;DHT22;7826;49.784;9.934;2024-03-02T07:01:18;7.20;99.90
15450;DHT22;7826;49.784;9.934;2024-03-02T07:03:46;7.20;99.90
15450;DHT22;7826;49.784;9.934;2024-03-02T07:06:12;7.30;99.90
15450;DHT22;7826;49.784;9.934;2024-03-02T07:08:38;7.30;99.90
15450;DHT22;7826;49.784;9.934;2024-03-02T07:11:04;7.40;99.90
15450;DHT22;7826;49.784;9.934;2024-03-02T07:13:30;7.40;99.90
15450;DHT22;7826;49.784;9.934;2024-03-02T07:15:56;7.50;99.90
15450;DHT22;7826;49.784;9.934;2024-03-02T07:18:29;7.40;99.90
15450;DHT22;7826;49.784;9.934;2024-03-02T07:20:57;7.40;99.90
15450;DHT22;7826;49.784;9.934;2024-03-02T07:23:27;7.40;99.90
15450;DHT22;7826;49.784;9.934;2024-03-02T07:25:53;7.40;99.90
15450;DHT22;7826;49.784;9.934;2024-03-02T07:28:23;7.40;99.90
15450;DHT22;7826;49.784;9.934;2024-03-02T07:31:02;7.40;99.90
15450;DHT22;7826;49.784;9.934;2024-03-02T07:33:30;7.40;99.90
15450;DHT22;7826;49.784;9.934;2024-03-02T07:35:57;7.40;99.90
15450;DHT22;7826;49.784;9.934;2024-03-02T07:38:25;7.30;99.90
15450;DHT22;7826;49.784;9.934;2024-03-02T07:40:51;7.40;99.90
15450;DHT22;7826;49.784;9.934;2024-03-02T07:43:18;7.40;99.90
15450;DHT22;7826;49.784;9.934;2024-03-02T07:45:48;7.40;99.90
15450;DHT22;7826;49.784;9.934;2024-03-02T07:48:15;7.40;99.90
15450;DHT22;7826;49.784;9.934;2024-03-02T07:50:41;7.40;99.90
15450;DHT22;7826;49.784;9.934;2024-03-02T07:53:08;7.30;99.90
15450;DHT22;7826;49.784;9.934;2024-03-02T07:55:35;7.30;99.90
15450;DHT22;7826;49.784;9.934;2024-03-02T07:58:01;7.30;99.90
15450;DHT22;7826;49.784;9.934;2024-03-02T08:00:27;7.40;99.90
15450;DHT22;7826;49.784;9.934;2024-03-02T08:02:54;7.40;99.90
15450;DHT22;7826;49.784;9.934;2024-03-02T08:05:21;7.50;99.90
15450;DHT22;7826;49.784;9.934;2024-03-02T08:07:47;7.50;99.90
15450;DHT22;7826;49.784;9.934;2024-03-02T08:10:14;7.40;99.90
15450;DHT22;7826;49.784;9.934;2024-03-02T08:12:40;7.40;99.90
15450;DHT22;7826;49.784;9.934;2024-03-02T08:15:06;7.40;99.90
15450;DHT22;7826;49.784;9.934;2024-03-02T08:17:33;7.40;99.90
15450;DHT22;7826;49.784;9.934;2024-03-02T08:19:59;7.40;99.90
15450;DHT22;7826;49.784;9.934;2024-03-02T08:22:25;7.40;99.90
15450;DHT22;7826;49.784;9.934;2024-03-02T08:24:51;7.40;99.90
15450;DHT22;7826;49.784;9.934;2024-03-02T08:27:18;7.40;99.90
15450;DHT22;7826;49.784;9.934;2024-03-02T08:29:44;7.50;99.90
15450;DHT22;7826;49.784;9.934;2024-03-02T08:32:10;7.50;99.90
15450;DHT22;7826;49.784;9.934;2024-03-02T08:34:36;7.50;99.90
15450;DHT22;7826;49.784;9.934;2024-03-02T08:37:02;7.50;99.90
15450;DHT22;7826;49.784;9.934;2024-03-02T08:39:29;7.50;99.90
15450;DHT22;7826;49.784;9.934;2024-03-02T08:41:55;7.50;99.90
15450;DHT22;7826;49.784;9.934;2024-03-02T08:44:21;7.50;99.90
15450;DHT22;7826;49.784;9.934;2024-03-02T08:46:47;7.50;99.90
15450;DHT22;7826;49.784;9.934;2024-03-02T08:49:14;7.60;99.90
15450;DHT22;7826;49.784;9.934;2024-03-02T08:51:40;7.50;99.90
15450;DHT22;7826;49.784;9.934;2024-03-02T08:54:06;7.50;99.90
15450;DHT22;7826;49.784;9.934;2024-03-02T08:56:32;7.50;99.90
15450;DHT22;7826;49.784;9.934;2024-03-02T08:58:58;7.50;99.90
15450;DHT22;7826;49.784;9.934;2024-03-02T09:01:24;7.50;99.90
15450;DHT22;7826;49.784;9.934;2024-03-02T09:03:51;7.60;99.90
15450;DHT22;7826;49.784;9.934;2024-03-02T09:06:17;7.60;99.90
15450;DHT22;7826;49.784;9.934;2024-03-02T09:08:43;7.60;99.90
15450;DHT22;7826;49.784;9.934;2024-03-02T09:11:10;7.70;99.90
15450;DHT22;7826;49.784;9.934;2024-03-02T09:13:38;7.70;99.90
15450;DHT22;7826;49.784;9.934;2024-03-02T09:16:04;7.70;99.90
15450;DHT22;7826;49.784;9.934;2024-03-02T09:18:31;7.70;99.90
15450;DHT22;7826;49.784;9.934;2024-03-02T09:20:57;7.70;99.90
15450;DHT22;7826;49.784;9.934;2024-03-02T09:23:23;7.70;99.90
15450;DHT22;7826;49.784;9.934;2024-03-02T09:25:49;7.80;99.90
15450;DHT22;7826;49.784;9.934;2024-03-02T09:28:16;7.80;99.90
15450;DHT22;7826;49.784;9.934;2024-03-02T09:30:42;7.80;99.90
15450;DHT22;7826;49.784;9.934;2024-03-02T09:33:08;7.80;99.90
15450;DHT22;7826;49.784;9.934;2024-03-02T09:35:34;7.80;99.90
15450;DHT22;7826;49.784;9.934;2024-03-02T09:38:00;7.80;99.90
15450;DHT22;7826;49.784;9.934;2024-03-02T09:40:26;7.80;99.90
15450;DHT22;7826;49.784;9.934;2024-03-02T09:42:54;7.80;99.90
15450;DHT22;7826;49.784;9.934;2024-03-02T09:45:24;7.80;99.90
15450;DHT22;7826;49.784;9.934;2024-03-02T09:47:50;7.80;99.90
15450;DHT22;7826;49.784;9.934;2024-03-02T09:50:17;7.80;99.90
15450;DHT22;7826;49.784;9.934;2024-03-02T09:52:43;7.80;99.90
15450;DHT22;7826;49.784;9.934;2024-03-02T09:55:11;7.90;99.90
15450;DHT22;7826;49.784;9.934;2024-03-02T09:57:37;8.00;99.90
15450;DHT22;7826;49.784;9.934;2024-03-02T10:00:04;8.00;99.90
15450;DHT22;7826;49.784;9.934;2024-03-02T10:02:31;8.00;99.90
15450;DHT22;7826;49.784;9.934;2024-03-02T10:04:57;8.10;99.90
15450;DHT22;7826;49.784;9.934;2024-03-02T10:07:23;8.10;99.90
15450;DHT22;7826;49.784;9.934;2024-03-02T10:09:49;8.10;99.90
15450;DHT22;7826;49.784;9.934;2024-03-02T10:12:18;8.10;99.90
15450;DHT22;7826;49.784;9.934;2024-03-02T10:14:45;8.20;99.90
15450;DHT22;7826;49.784;9.934;2024-03-02T10:17:13;8.40;99.90
15450;DHT22;7826;49.784;9.934;2024-03-02T10:19:40;8.40;99.90
15450;DHT22;7826;49.784;9.934;2024-03-02T10:22:07;8.60;99.90
15450;DHT22;7826;49.784;9.934;2024-03-02T10:24:37;8.70;99.90
15450;DHT22;7826;49.784;9.934;2024-03-02T10:27:17;8.80;99.90
15450;DHT22;7826;49.784;9.934;2024-03-02T10:29:46;8.90;99.90
15450;DHT22;7826;49.784;9.934;2024-03-02T10:32:12;9.10;99.90
15450;DHT22;7826;49.784;9.934;2024-03-02T10:34:45;9.10;99.90
15450;DHT22;7826;49.784;9.934;2024-03-02T10:37:14;9.30;99.90
15450;DHT22;7826;49.784;9.934;2024-03-02T10:39:40;9.60;99.90
15450;DHT22;7826;49.784;9.934;2024-03-02T10:42:07;9.50;99.90
15450;DHT22;7826;49.784;9.934;2024-03-02T10:44:34;9.50;99.90
15450;DHT22;7826;49.784;9.934;2024-03-02T10:47:02;9.80;99.90
15450;DHT22;7826;49.784;9.934;2024-03-02T10:49:30;10.10;99.90
15450;DHT22;7826;49.784;9.934;2024-03-02T10:52:00;10.30;99.90
15450;DHT22;7826;49.784;9.934;2024-03-02T10:54:27;10.50;99.90
15450;DHT22;7826;49.784;9.934;2024-03-02T10:56:58;10.80;99.90
15450;DHT22;7826;49.784;9.934;2024-03-02T11:02:03;10.90;99.90
15450;DHT22;7826;49.784;9.934;2024-03-02T11:04:31;11.00;99.90
15450;DHT22;7826;49.784;9.934;2024-03-02T11:07:02;11.10;99.90
15450;DHT22;7826;49.784;9.934;2024-03-02T11:09:30;11.30;99.90
15450;DHT22;7826;49.784;9.934;2024-03-02T11:14:41;11.60;99.90
15450;DHT22;7826;49.784;9.934;2024-03-02T11:17:09;11.60;99.90
15450;DHT22;7826;49.784;9.934;2024-03-02T11:19:38;11.80;99.90
15450;DHT22;7826;49.784;9.934;2024-03-02T11:22:05;11.80;99.90
15450;DHT22;7826;49.784;9.934;2024-03-02T11:24:32;11.80;99.90
15450;DHT22;7826;49.784;9.934;2024-03-02T11:27:01;12.00;99.90
15450;DHT22;7826;49.784;9.934;2024-03-02T11:29:53;12.10;99.90
15450;DHT22;7826;49.784;9.934;2024-03-02T11:32:21;12.20;99.90
15450;DHT22;7826;49.784;9.934;2024-03-02T11:34:50;12.20;99.90
15450;DHT22;7826;49.784;9.934;2024-03-02T11:37:18;12.10;99.90
15450;DHT22;7826;49.784;9.934;2024-03-02T11:39:45;12.30;99.90
15450;DHT22;7826;49.784;9.934;2024-03-02T11:42:13;12.20;99.90
15450;DHT22;7826;49.784;9.934;2024-03-02T11:44:46;12.20;99.90
15450;DHT22;7826;49.784;9.934;2024-03-02T11:47:16;12.40;99.90
15450;DHT22;7826;49.784;9.934;2024-03-02T11:49:45;12.30;99.90
15450;DHT22;7826;49.784;9.934;2024-03-02T11:52:12;12.20;99.90
15450;DHT22;7826;49.784;9.934;2024-03-02T11:54:42;12.10;99.90
15450;DHT22;7826;49.784;9.934;2024-03-02T11:57:13;12.20;99.90
15450;DHT22;7826;49.784;9.934;2024-03-02T11:59:41;12.20;99.90
15450;DHT22;7826;49.784;9.934;2024-03-02T12:02:16;12.20;99.90
15450;DHT22;7826;49.784;9.934;2024-03-02T12:04:46;12.40;99.90
15450;DHT22;7826;49.784;9.934;2024-03-02T12:07:21;12.50;99.90
15450;DHT22;7826;49.784;9.934;2024-03-02T12:09:49;12.60;99.90
15450;DHT22;7826;49.784;9.934;2024-03-02T12:12:15;12.80;99.90
15450;DHT22;7826;49.784;9.934;2024-03-02T12:14:53;12.90;99.90
15450;DHT22;7826;49.784;9.934;2024-03-02T12:17:22;12.80;99.90
15450;DHT22;7826;49.784;9.934;2024-03-02T12:19:49;12.80;99.90
15450;DHT22;7826;49.784;9.934;2024-03-02T12:22:15;12.70;99.90
15450;DHT22;7826;49.784;9.934;2024-03-02T12:24:42;12.60;99.90
15450;DHT22;7826;49.784;9.934;2024-03-02T12:27:12;12.60;99.90
15450;DHT22;7826;49.784;9.934;2024-03-02T12:29:39;12.50;99.90
15450;DHT22;7826;49.784;9.934;2024-03-02T12:32:05;12.40;99.90
15450;DHT22;7826;49.784;9.934;2024-03-02T12:34:32;12.50;99.90
15450;DHT22;7826;49.784;9.934;2024-03-02T12:36:58;12.40;99.90
15450;DHT22;7826;49.784;9.934;2024-03-02T12:39:25;12.40;99.90
15450;DHT22;7826;49.784;9.934;2024-03-02T12:41:51;12.40;99.90
15450;DHT22;7826;49.784;9.934;2024-03-02T12:44:17;12.60;99.90
15450;DHT22;7826;49.784;9.934;2024-03-02T12:46:44;12.60;99.90
15450;DHT22;7826;49.784;9.934;2024-03-02T12:49:12;12.50;99.90
15450;DHT22;7826;49.784;9.934;2024-03-02T12:51:42;12.50;99.90
15450;DHT22;7826;49.784;9.934;2024-03-02T12:54:09;12.60;99.90
15450;DHT22;7826;49.784;9.934;2024-03-02T12:56:37;12.60;99.90
15450;DHT22;7826;49.784;9.934;2024-03-02T12:59:04;12.60;99.90
15450;DHT22;7826;49.784;9.934;2024-03-02T13:01:31;12.60;99.90
15450;DHT22;7826;49.784;9.934;2024-03-02T13:03:58;12.60;99.90
15450;DHT22;7826;49.784;9.934;2024-03-02T13:06:25;12.70;99.90
15450;DHT22;7826;49.784;9.934;2024-03-02T13:08:54;12.70;99.90
15450;DHT22;7826;49.784;9.934;2024-03-02T13:11:23;12.60;99.90
15450;DHT22;7826;49.784;9.934;2024-03-02T13:13:52;12.60;99.90
15450;DHT22;7826;49.784;9.934;2024-03-02T13:16:18;12.50;99.90
15450;DHT22;7826;49.784;9.934;2024-03-02T13:18:46;12.60;99.90
15450;DHT22;7826;49.784;9.934;2024-03-02T13:21:12;12.60;99.90
15450;DHT22;7826;49.784;9.934;2024-03-02T13:23:38;12.70;99.90
15450;DHT22;7826;49.784;9.934;2024-03-02T13:26:04;12.70;99.90
15450;DHT22;7826;49.784;9.934;2024-03-02T13:28:31;12.70;99.90
15450;DHT22;7826;49.784;9.934;2024-03-02T13:30:57;13.10;99.90
15450;DHT22;7826;49.784;9.934;2024-03-02T13:33:24;13.20;99.90
15450;DHT22;7826;49.784;9.934;2024-03-02T13:35:50;13.40;99.90
15450;DHT22;7826;49.784;9.934;2024-03-02T13:38:18;13.60;99.90
15450;DHT22;7826;49.784;9.934;2024-03-02T13:40:45;13.20;99.90
15450;DHT22;7826;49.784;9.934;2024-03-02T13:43:12;13.30;99.90
15450;DHT22;7826;49.784;9.934;2024-03-02T13:45:39;13.40;99.90
15450;DHT22;7826;49.784;9.934;2024-03-02T13:48:05;13.20;99.90
15450;DHT22;7826;49.784;9.934;2024-03-02T13:50:32;13.10;99.90
15450;DHT22;7826;49.784;9.934;2024-03-02T13:52:58;13.10;99.90
15450;DHT22;7826;49.784;9.934;2024-03-02T13:55:25;13.00;99.90
15450;DHT22;7826;49.784;9.934;2024-03-02T13:57:51;12.90;99.90
15450;DHT22;7826;49.784;9.934;2024-03-02T14:00:18;13.00;99.90
15450;DHT22;7826;49.784;9.934;2024-03-02T14:02:45;12.80;99.90
15450;DHT22;7826;49.784;9.934;2024-03-02T14:05:12;12.70;99.90
15450;DHT22;7826;49.784;9.934;2024-03-02T14:07:40;12.70;99.90
15450;DHT22;7826;49.784;9.934;2024-03-02T14:10:07;12.70;99.90
15450;DHT22;7826;49.784;9.934;2024-03-02T14:12:33;12.70;99.90
15450;DHT22;7826;49.784;9.934;2024-03-02T14:14:59;12.70;99.90
15450;DHT22;7826;49.784;9.934;2024-03-02T14:17:28;12.70;99.90
15450;DHT22;7826;49.784;9.934;2024-03-02T14:19:54;12.80;99.90
15450;DHT22;7826;49.784;9.934;2024-03-02T14:22:21;12.70;99.90
15450;DHT22;7826;49.784;9.934;2024-03-02T14:24:47;12.80;99.90
15450;DHT22;7826;49.784;9.934;2024-03-02T14:27:15;12.90;99.90
15450;DHT22;7826;49.784;9.934;2024-03-02T14:29:42;12.90;99.90
15450;DHT22;7826;49.784;9.934;2024-03-02T14:32:09;13.00;99.90
15450;DHT22;7826;49.784;9.934;2024-03-02T14:34:35;13.00;99.90
15450;DHT22;7826;49.784;9.934;2024-03-02T14:37:01;13.00;99.90
15450;DHT22;7826;49.784;9.934;2024-03-02T14:39:28;13.00;99.90
15450;DHT22;7826;49.784;9.934;2024-03-02T14:41:55;12.90;99.90
15450;DHT22;7826;49.784;9.934;2024-03-02T14:44:21;12.90;99.90
15450;DHT22;7826;49.784;9.934;2024-03-02T14:46:48;13.00;99.90
15450;DHT22;7826;49.784;9.934;2024-03-02T14:49:15;13.00;99.90
15450;DHT22;7826;49.784;9.934;2024-03-02T14:51:41;13.10;99.90
15450;DHT22;7826;49.784;9.934;2024-03-02T14:54:07;13.10;99.90
15450;DHT22;7826;49.784;9.934;2024-03-02T14:56:33;13.10;99.90
15450;DHT22;7826;49.784;9.934;2024-03-02T14:58:59;13.10;99.90
15450;DHT22;7826;49.784;9.934;2024-03-02T15:01:25;13.20;99.90
15450;DHT22;7826;49.784;9.934;2024-03-02T15:03:52;13.10;99.90
15450;DHT22;7826;49.784;9.934;2024-03-02T15:06:18;13.10;99.90
15450;DHT22;7826;49.784;9.934;2024-03-02T15:08:44;13.20;99.90
15450;DHT22;7826;49.784;9.934;2024-03-02T15:11:14;13.20;99.90
15450;DHT22;7826;49.784;9.934;2024-03-02T15:13:40;13.20;99.90
15450;DHT22;7826;49.784;9.934;2024-03-02T15:16:07;13.10;99.90
15450;DHT22;7826;49.784;9.934;2024-03-02T15:18:33;13.10;99.90
15450;DHT22;7826;49.784;9.934;2024-03-02T15:21:00;13.10;99.90
15450;DHT22;7826;49.784;9.934;2024-03-02T15:23:26;13.10;99.90
15450;DHT22;7826;49.784;9.934;2024-03-02T15:25:56;13.10;99.90
15450;DHT22;7826;49.784;9.934;2024-03-02T15:28:22;13.00;99.90
15450;DHT22;7826;49.784;9.934;2024-03-02T15:30:48;13.00;99.90
15450;DHT22;7826;49.784;9.934;2024-03-02T15:33:14;13.00;99.90
15450;DHT22;7826;49.784;9.934;2024-03-02T15:35:43;12.80;99.90
15450;DHT22;7826;49.784;9.934;2024-03-02T15:38:09;12.80;99.90
15450;DHT22;7826;49.784;9.934;2024-03-02T15:40:38;12.70;99.90
15450;DHT22;7826;49.784;9.934;2024-03-02T15:43:04;12.70;99.90
15450;DHT22;7826;49.784;9.934;2024-03-02T15:45:30;12.60;99.90
15450;DHT22;7826;49.784;9.934;2024-03-02T15:48:00;12.50;99.90
15450;DHT22;7826;49.784;9.934;2024-03-02T15:50:27;12.50;99.90
15450;DHT22;7826;49.784;9.934;2024-03-02T15:52:54;12.50;99.90
15450;DHT22;7826;49.784;9.934;2024-03-02T15:55:23;12.50;99.90
15450;DHT22;7826;49.784;9.934;2024-03-02T15:57:49;12.40;99.90
15450;DHT22;7826;49.784;9.934;2024-03-02T16:00:16;12.40;99.90
15450;DHT22;7826;49.784;9.934;2024-03-02T16:02:42;12.30;99.90
15450;DHT22;7826;49.784;9.934;2024-03-02T16:05:08;12.20;99.90
15450;DHT22;7826;49.784;9.934;2024-03-02T16:07:35;12.20;99.90